Edenbridge, United Kingdom
Current Conditions -  °F | °C
As of 2:20 PM on Wednesday 28 Jan 2015 (Local Time) from EGKB Reporting Station
Scattered Clouds Scattered Clouds  
Wind Chill: 35°   Ceiling: Unl
Heat Index: 43°   Visibility: 6mi
Dew Point: 30°   Wind: 18mph
Humidity: 61%   Direction: 290°WNW
Pressure: 29.53"   Gusts: 32mph
Location:  51.19°N, 0.07°E
Report Text: EGKB 281420Z 29016G28KT 260V330 9999 SCT035 06/M01 Q1000
Loading
Personal Weather Stations






























Interactive Weather Map New forecast layout! Learn more

10-Day Weather Forecast

Advertisements
Track Severe Weather on mobile